Terminal Aerodrome Forecast
Issued by NWS Sioux Falls, SD

Home | Current Version | Previous Version | Graphics & Text | Print | Product List | Glossary On
Versions: 1 2 3 4 5 6 7 8 9 10 11 12 13 14 15 16 17 18 19 20 21 22 23 24 25 26 27 28 29 30
000
FTUS43 KFSD 120523
TAFSUX
TAF
KSUX 120523Z 1206/1306 01009KT P6SM -SHRA SCT030 OVC045
      TEMPO 1206/1208 BKN030
     FM120800 35007KT P6SM SCT010 OVC030
     FM121700 35005KT P6SM SCT030 OVC040
     FM122000 34004KT P6SM SCT035 SCT100=

USA.gov is the U.S. government's official web portal to all federal, state and local government web resources and services.